ADDS METAR Data INFO
IDs: Format: Raw Decoded Include TAF

Data at: 1732 UTC 25 Feb 2018

KFOZ 251545Z AUTO 26006KT 10SM -SN OVC011 M04/M07 A2943 RMK AO2
KFOZ 251445Z AUTO 26010G19KT 10SM -SN OVC009 M06/M07 A2940 RMK AO2
KFOZ 251245Z AUTO 27006KT 10SM BKN011 OVC095 M07/M09 A2936 RMK AO2
KFOZ 251145Z AUTO 26006KT 10SM -SN BKN011 OVC017 M06/M08 A2934 RMK AO2
KFOZ 251045Z AUTO 26003KT 7SM -SN SCT019 BKN042 OVC110 M06/M08 A2932 RMK
KFOZ 250945Z AUTO 00000KT 5SM -SN BKN017 BKN028 OVC039 M06/M07 A2933 RMK
KFOZ 250906Z AUTO 00000KT 3SM -SN SCT005 BKN018 OVC030 M06/M07 A2933 RMK
KFOZ 250745Z AUTO 00000KT 2SM -SN OVC002 M05/M06 A2936 RMK AO2 P0004
KFOZ 250645Z AUTO 00000KT 2SM -SN BKN002 OVC019 M05/M06 A2939 RMK AO2 P000
KFOZ 250545Z AUTO 04003KT 2 1/2SM -SN OVC019 M05/M07 A2943 RMK AO2 P0005
KFOZ 250445Z AUTO 03003KT 1 1/4SM SN OVC002 M05/M07 A2949 RMK AO2 P0001
KFOZ 250345Z AUTO 02004KT 1/2SM +SN OVC002 M06/M07 A2954 RMK AO2 P0006
KFOZ 250245Z AUTO 03003KT 1/2SM SN OVC002 M05/M07 A2961 RMK AO2
KFOZ 250145Z AUTO 03003KT 10SM -SN SCT007 BKN034 OVC040 M06/M07 A2964 RMK
KFOZ 250045Z AUTO 07006KT 2SM -SN BKN003 BKN016 OVC028 M05/M09 A2970 RMK
KFOZ 250010Z AUTO 00000KT 7SM -SN SCT010 BKN019 OVC050 M04/M11 A2974 RMK
KFOZ 242245Z AUTO 08004KT 10SM CLR M04/M12 A2981 RMK AO2
KFOZ 242145Z AUTO 10003KT 10SM CLR M04/M12 A2986 RMK AO2
KFOZ 242045Z AUTO 00000KT 10SM CLR M04/M13 A2991 RMK AO2
KFOZ 241945Z AUTO 11004KT 10SM CLR M05/M13 A2992 RMK AO2
KFOZ 241845Z AUTO 19006KT 10SM CLR M05/M12 A2999 RMK AO2
KFOZ 241745Z AUTO 18005KT 10SM CLR M05/M12 A3001 RMK AO2
KFOZ 241645Z AUTO 00000KT 10SM CLR M07/M12 A3003 RMK AO2
KFOZ 241545Z AUTO 00000KT 10SM CLR M11/M13 A3004 RMK AO2
KFOZ 241445Z AUTO 00000KT 5SM -SN CLR M18/M20 A3008 RMK AO2
KFOZ 241345Z AUTO 00000KT 10SM CLR M24/M27 A3009 RMK AO2
KFOZ 241245Z AUTO 00000KT 10SM CLR M24/M28 A3010 RMK AO2
KFOZ 241213Z AUTO 00000KT 10SM CLR M24/M27 A3011 RMK AO2 TSNO
KFOZ 241107Z AUTO 00000KT 10SM CLR M23/M26 A3011 RMK AO2
KFOZ 241001Z AUTO 00000KT 10SM CLR M21/M23 A3015 RMK AO2 TSNO
KFOZ 240845Z AUTO 00000KT 10SM CLR M19/M21 A3018 RMK AO2 TSNO
KFOZ 240745Z AUTO 00000KT 10SM CLR M17/M19 A3019 RMK AO2
KFOZ 240645Z AUTO 22004KT 10SM CLR M17/M18 A3019 RMK AO2
KFOZ 240545Z AUTO 23003KT 10SM CLR M15/M18 A3019 RMK AO2